Ridgeland, Wisconsin
Current Conditions -  °F | °C
As of 4:55 PM on Tuesday 27 Jan 2015 (Local Time) from KY23 Reporting Station
Overcast Overcast  
Wind Chill: 21°   Ceiling: 1900
Heat Index: 28°   Visibility: 10mi
Dew Point: 22°   Wind: 7mph
Humidity: 77%   Direction: 150°SSE
Pressure: 30.18"   Gusts: NA
Location:  45.2°N, 91.9°W
Report Text: KY23 272255Z AUTO 15006KT 10SM OVC019 M02/M06 A3018 RMK AO2 T10221057
Loading
Personal Weather Stations






























Interactive Weather Map New forecast layout! Learn more

10-Day Weather Forecast

Advertisements
Track Severe Weather on mobile